createdAt,value
2023-05-20T00:00:09.628Z,1.50
2023-05-20T00:02:38.332Z,1.92
2023-05-20T00:05:07.881Z,1.90
2023-05-20T00:07:36.561Z,1.40
2023-05-20T00:10:05.331Z,1.67
2023-05-20T00:12:35.072Z,1.75
2023-05-20T00:15:05.526Z,1.90
2023-05-20T00:17:34.238Z,1.75
2023-05-20T00:20:02.599Z,1.30
2023-05-20T00:22:31.183Z,1.52
2023-05-20T00:24:59.853Z,1.70
2023-05-20T00:27:28.872Z,1.35
2023-05-20T00:29:57.180Z,1.90
2023-05-20T00:32:27.166Z,2.13
2023-05-20T00:34:59.047Z,1.95
2023-05-20T00:37:28.587Z,1.52
2023-05-20T00:39:57.206Z,1.33
2023-05-20T00:42:27.278Z,1.50
2023-05-20T00:44:56.878Z,2.03
2023-05-20T00:47:31.824Z,1.80
2023-05-20T00:50:01.511Z,1.85
2023-05-20T00:52:32.742Z,2.15
2023-05-20T00:55:01.799Z,2.10
2023-05-20T00:57:30.827Z,1.92
2023-05-20T00:59:59.720Z,2.10
2023-05-20T01:02:29.934Z,1.50
2023-05-20T01:04:58.597Z,1.65
2023-05-20T01:07:27.021Z,1.75
2023-05-20T01:09:56.235Z,2.30
2023-05-20T01:12:29.680Z,1.95
2023-05-20T01:15:06.587Z,1.90
2023-05-20T01:17:41.468Z,2.03
2023-05-20T01:20:11.693Z,2.15
2023-05-20T01:22:48.755Z,2.00
2023-05-20T01:25:17.527Z,2.10
2023-05-20T01:27:48.934Z,2.35
2023-05-20T01:30:18.563Z,2.20
2023-05-20T01:32:53.484Z,2.15
2023-05-20T01:35:23.541Z,2.20
2023-05-20T01:37:54.669Z,2.35
2023-05-20T01:40:24.663Z,1.80
2023-05-20T01:42:55.120Z,2.00
2023-05-20T01:45:26.291Z,2.00
2023-05-20T01:47:55.070Z,2.08
2023-05-20T01:50:23.830Z,1.35
2023-05-20T01:52:53.603Z,1.60
2023-05-20T01:55:22.529Z,2.40
2023-05-20T01:57:51.093Z,1.73
2023-05-20T02:00:19.455Z,1.90
2023-05-20T02:02:48.186Z,2.13
2023-05-20T02:05:17.433Z,2.00
2023-05-20T02:07:45.810Z,2.08
2023-05-20T02:10:18.719Z,2.10
2023-05-20T02:12:49.338Z,2.50
2023-05-20T02:15:18.055Z,2.22
2023-05-20T02:17:47.371Z,2.40
2023-05-20T02:20:16.629Z,2.15
2023-05-20T02:22:45.211Z,2.00
2023-05-20T02:25:15.492Z,2.75
2023-05-20T02:27:45.429Z,2.25
2023-05-20T02:30:14.112Z,1.90
2023-05-20T02:32:43.301Z,2.05
2023-05-20T02:35:11.917Z,2.08
2023-05-20T02:37:40.554Z,2.45
2023-05-20T02:40:10.331Z,2.38
2023-05-20T02:42:42.380Z,2.20
2023-05-20T02:45:11.651Z,2.67
2023-05-20T02:47:40.869Z,2.17
2023-05-20T02:50:10.027Z,2.00
2023-05-20T02:52:39.899Z,2.40
2023-05-20T02:55:09.296Z,2.40
2023-05-20T02:57:39.060Z,2.38
2023-05-20T03:00:12.132Z,2.40
2023-05-20T03:02:41.140Z,2.05
2023-05-20T03:05:10.807Z,1.98
2023-05-20T03:07:39.530Z,2.10
2023-05-20T03:10:10.677Z,2.47
2023-05-20T03:12:41.076Z,2.40
2023-05-20T03:15:13.268Z,2.13
2023-05-20T03:17:41.983Z,2.50
2023-05-20T03:20:12.773Z,2.28
2023-05-20T03:22:42.200Z,2.78
2023-05-20T03:25:11.102Z,2.00
2023-05-20T03:27:39.642Z,2.50
2023-05-20T03:30:11.399Z,2.53
2023-05-20T03:32:40.120Z,2.50
2023-05-20T03:35:09.979Z,2.22
2023-05-20T03:37:39.798Z,2.20
2023-05-20T03:40:10.371Z,2.13
2023-05-20T03:42:39.933Z,2.05
2023-05-20T03:45:11.630Z,2.13
2023-05-20T03:47:50.559Z,2.75
2023-05-20T03:50:19.779Z,2.67
2023-05-20T03:52:48.641Z,2.13
2023-05-20T03:55:20.617Z,2.30
2023-05-20T03:57:49.745Z,2.47
2023-05-20T04:00:19.615Z,2.40
2023-05-20T04:02:50.759Z,2.13
2023-05-20T04:05:20.889Z,2.80
2023-05-20T04:07:49.687Z,2.97
2023-05-20T04:10:20.986Z,2.63
2023-05-20T04:12:49.725Z,2.97
2023-05-20T04:15:19.788Z,2.47
2023-05-20T04:17:55.895Z,2.22
2023-05-20T04:20:25.152Z,2.97
2023-05-20T04:22:57.021Z,2.92
2023-05-20T04:25:26.118Z,2.60
2023-05-20T04:27:55.063Z,2.80
2023-05-20T04:30:25.414Z,2.50
2023-05-20T04:32:55.086Z,2.17
2023-05-20T04:35:25.865Z,2.72
2023-05-20T04:37:55.369Z,2.47
2023-05-20T04:40:24.877Z,2.70
2023-05-20T04:42:54.608Z,2.80
2023-05-20T04:45:26.578Z,2.45
2023-05-20T04:47:55.248Z,2.60
2023-05-20T04:50:23.854Z,2.28
2023-05-20T04:52:52.458Z,3.00
2023-05-20T04:55:21.898Z,2.58
2023-05-20T04:57:50.557Z,2.25
2023-05-20T05:00:19.446Z,2.95
2023-05-20T05:02:49.783Z,2.80
2023-05-20T05:05:18.708Z,2.40
2023-05-20T05:07:47.353Z,3.42
2023-05-20T05:10:15.934Z,2.67
2023-05-20T05:12:44.477Z,2.50
2023-05-20T05:15:12.994Z,2.60
2023-05-20T05:17:41.696Z,3.10
2023-05-20T05:20:12.318Z,2.63
2023-05-20T05:22:41.629Z,2.95
2023-05-20T05:25:11.616Z,2.70
2023-05-20T05:27:40.494Z,2.38
2023-05-20T05:30:10.407Z,2.70
2023-05-20T05:32:39.281Z,2.42
2023-05-20T05:35:08.530Z,2.58
2023-05-20T05:37:38.576Z,2.75
2023-05-20T05:40:09.183Z,2.42
2023-05-20T05:42:37.876Z,2.78
2023-05-20T05:45:07.895Z,3.05
2023-05-20T05:47:37.490Z,3.42
2023-05-20T05:50:06.765Z,3.00
2023-05-20T05:52:37.965Z,2.22
2023-05-20T05:55:10.845Z,2.58
2023-05-20T05:57:39.555Z,3.05
2023-05-20T06:00:10.537Z,2.67
2023-05-20T06:02:48.096Z,2.95
2023-05-20T06:05:30.061Z,3.28
2023-05-20T06:08:00.441Z,2.58
2023-05-20T06:10:29.057Z,3.50
2023-05-20T06:12:57.412Z,2.90
2023-05-20T06:15:27.295Z,3.13
2023-05-20T06:17:56.208Z,3.20
2023-05-20T06:20:25.201Z,2.58
2023-05-20T06:22:53.906Z,3.85
2023-05-20T06:25:24.090Z,3.03
2023-05-20T06:27:53.093Z,3.45
2023-05-20T06:30:22.157Z,3.10
2023-05-20T06:32:50.574Z,3.63
2023-05-20T06:35:19.300Z,2.85
2023-05-20T06:37:48.042Z,3.40
2023-05-20T06:40:16.789Z,3.00
2023-05-20T06:42:46.892Z,2.58
2023-05-20T06:45:15.628Z,3.47
2023-05-20T06:50:19.214Z,3.13
2023-05-20T06:52:47.920Z,3.17
2023-05-20T06:55:16.903Z,3.00
2023-05-20T06:57:46.560Z,2.92
2023-05-20T07:00:16.605Z,3.03
2023-05-20T07:02:44.940Z,2.97
2023-05-20T07:05:15.380Z,2.83
2023-05-20T07:07:43.678Z,2.85
2023-05-20T07:10:12.415Z,3.00
2023-05-20T07:12:41.074Z,3.35
2023-05-20T07:15:12.310Z,3.75
2023-05-20T07:17:41.023Z,2.83
2023-05-20T07:20:10.326Z,2.95
2023-05-20T07:22:39.024Z,2.58
2023-05-20T07:25:16.773Z,3.10
2023-05-20T07:27:46.198Z,3.22
2023-05-20T07:30:15.902Z,2.97
2023-05-20T07:32:50.661Z,3.03
2023-05-20T07:35:19.392Z,2.85
2023-05-20T07:37:48.438Z,2.85
2023-05-20T07:40:17.417Z,3.28
2023-05-20T07:42:45.932Z,2.80
2023-05-20T07:45:16.076Z,2.65
2023-05-20T07:47:44.716Z,3.85
2023-05-20T07:50:13.354Z,3.35
2023-05-20T07:52:55.429Z,3.33
2023-05-20T07:55:27.617Z,3.13
2023-05-20T07:57:57.382Z,3.40
2023-05-20T08:00:27.777Z,3.50
2023-05-20T08:02:56.502Z,3.13
2023-05-20T08:05:33.271Z,3.15
2023-05-20T08:08:04.352Z,3.40
2023-05-20T08:10:42.284Z,3.45
2023-05-20T08:13:11.053Z,3.08
2023-05-20T08:15:42.564Z,2.97
2023-05-20T08:18:11.285Z,3.17
2023-05-20T08:20:39.724Z,4.00
2023-05-20T08:23:08.317Z,2.97
2023-05-20T08:25:38.116Z,3.10
2023-05-20T08:28:07.478Z,3.25
2023-05-20T08:30:40.056Z,3.75
2023-05-20T08:33:08.866Z,3.45
2023-05-20T08:35:39.445Z,3.88
2023-05-20T08:38:08.626Z,3.15
2023-05-20T08:40:37.378Z,3.15
2023-05-20T08:43:07.109Z,3.58
2023-05-20T08:45:38.952Z,3.05
2023-05-20T08:48:13.880Z,3.47
2023-05-20T08:50:42.731Z,3.00
2023-05-20T08:53:11.545Z,3.42
2023-05-20T08:55:47.821Z,3.45
2023-05-20T08:58:19.305Z,3.42
2023-05-20T09:00:47.957Z,2.85
2023-05-20T09:03:17.944Z,3.10
2023-05-20T09:05:46.642Z,3.40
2023-05-20T09:08:15.237Z,3.20
2023-05-20T09:10:44.034Z,3.38
2023-05-20T09:13:12.634Z,2.60
2023-05-20T09:15:41.830Z,2.88
2023-05-20T09:18:12.180Z,2.92
2023-05-20T09:20:42.109Z,3.17
2023-05-20T09:23:11.395Z,3.38
2023-05-20T09:25:40.011Z,3.67
2023-05-20T09:28:09.301Z,3.10
2023-05-20T09:30:37.912Z,3.03
2023-05-20T09:33:07.773Z,2.88
2023-05-20T09:35:38.580Z,2.92
2023-05-20T09:38:09.173Z,3.38
2023-05-20T09:40:40.295Z,3.10
2023-05-20T09:43:11.115Z,3.30
2023-05-20T09:45:39.873Z,3.67
2023-05-20T09:48:11.134Z,3.63
2023-05-20T09:50:40.096Z,2.90
2023-05-20T09:53:12.201Z,3.38
2023-05-20T09:55:41.148Z,3.45
2023-05-20T09:58:16.151Z,3.10
2023-05-20T10:00:45.081Z,3.17
2023-05-20T10:03:14.066Z,3.17
2023-05-20T10:06:10.510Z,3.65
2023-05-20T10:09:03.843Z,3.17
2023-05-20T10:11:44.375Z,3.65
2023-05-20T10:14:41.522Z,3.10
2023-05-20T10:17:18.466Z,3.40
2023-05-20T10:19:47.121Z,3.30
2023-05-20T10:22:16.107Z,3.60
2023-05-20T10:24:46.225Z,3.72
2023-05-20T10:27:16.998Z,3.60
2023-05-20T10:32:27.633Z,3.88
2023-05-20T10:35:02.169Z,3.55
2023-05-20T10:37:33.325Z,3.15
2023-05-20T10:40:09.448Z,3.20
2023-05-20T10:42:38.233Z,3.50
2023-05-20T10:45:08.624Z,3.88
2023-05-20T10:47:37.451Z,3.35
2023-05-20T10:50:07.528Z,3.03
2023-05-20T10:52:37.659Z,3.13
2023-05-20T10:55:19.822Z,3.08
2023-05-20T10:57:49.226Z,3.90
2023-05-20T11:00:18.219Z,3.15
2023-05-20T11:02:48.389Z,3.30
2023-05-20T11:05:18.893Z,3.53
2023-05-20T11:07:47.433Z,3.67
2023-05-20T11:10:17.066Z,3.20
2023-05-20T11:12:45.690Z,3.30
2023-05-20T11:15:14.328Z,3.90
2023-05-20T11:17:55.017Z,3.25
2023-05-20T11:20:24.591Z,3.28
2023-05-20T11:22:53.445Z,3.42
2023-05-20T11:25:23.716Z,5.18
2023-05-20T11:27:52.962Z,3.80
2023-05-20T11:30:22.131Z,3.65
2023-05-20T11:33:00.000Z,3.58
2023-05-20T11:35:30.484Z,3.88
2023-05-20T11:38:02.681Z,3.72
2023-05-20T11:40:46.352Z,4.15
2023-05-20T11:43:19.473Z,3.13
2023-05-20T11:45:53.321Z,3.50
2023-05-20T11:48:22.184Z,3.35
2023-05-20T11:50:50.863Z,4.53
2023-05-20T11:53:21.008Z,3.70
2023-05-20T11:55:52.176Z,3.42
2023-05-20T11:58:22.265Z,3.78
2023-05-20T12:00:55.183Z,3.28
2023-05-20T12:03:31.898Z,3.70
2023-05-20T12:06:02.822Z,3.83
2023-05-20T12:08:31.159Z,3.95
2023-05-20T12:11:01.062Z,3.88
2023-05-20T12:13:29.596Z,3.42
2023-05-20T12:15:58.224Z,4.30
2023-05-20T12:18:29.233Z,4.20
2023-05-20T12:20:58.024Z,4.22
2023-05-20T12:23:26.613Z,4.07
2023-05-20T12:25:55.218Z,4.20
2023-05-20T12:28:24.858Z,4.00
2023-05-20T12:30:53.307Z,4.30
2023-05-20T12:33:22.482Z,4.25
2023-05-20T12:35:51.082Z,3.97
2023-05-20T12:38:20.233Z,3.85
2023-05-20T12:40:50.266Z,4.60
2023-05-20T12:43:18.857Z,4.00
2023-05-20T12:45:48.714Z,4.65
2023-05-20T12:48:17.341Z,4.43
2023-05-20T12:50:45.960Z,3.90
2023-05-20T12:53:14.514Z,4.07
2023-05-20T12:55:43.033Z,4.55
2023-05-20T12:58:11.563Z,4.07
2023-05-20T13:00:40.190Z,4.10
2023-05-20T13:03:09.965Z,4.63
2023-05-20T13:05:38.325Z,4.05
2023-05-20T13:08:09.033Z,4.43
2023-05-20T13:10:38.263Z,4.07
2023-05-20T13:13:06.912Z,4.68
2023-05-20T13:15:35.550Z,4.13
2023-05-20T13:18:06.691Z,4.05
2023-05-20T13:20:36.723Z,4.18
2023-05-20T13:23:05.427Z,3.90
2023-05-20T13:25:33.957Z,5.35
2023-05-20T13:28:02.721Z,4.22
2023-05-20T13:30:32.461Z,3.97
2023-05-20T13:33:01.181Z,3.97
2023-05-20T13:35:29.781Z,4.68
2023-05-20T13:37:59.368Z,4.00
2023-05-20T13:40:27.673Z,4.88
2023-05-20T13:42:56.419Z,4.55
2023-05-20T13:45:24.675Z,4.28
2023-05-20T13:47:53.234Z,4.13
2023-05-20T13:50:22.121Z,4.20
2023-05-20T13:52:50.743Z,5.25
2023-05-20T13:55:21.000Z,4.72
2023-05-20T13:57:50.138Z,4.45
2023-05-20T14:00:18.982Z,4.88
2023-05-20T14:02:47.610Z,4.45
2023-05-20T14:05:16.820Z,4.35
2023-05-20T14:07:45.548Z,4.40
2023-05-20T14:10:13.919Z,4.20
2023-05-20T14:12:47.936Z,3.83
2023-05-20T14:15:16.631Z,4.38
2023-05-20T14:17:44.979Z,4.15
2023-05-20T14:20:14.113Z,4.47
2023-05-20T14:22:42.366Z,5.00
2023-05-20T14:25:10.945Z,4.05
2023-05-20T14:27:39.521Z,4.07
2023-05-20T14:30:11.310Z,3.88
2023-05-20T14:32:39.721Z,4.93
2023-05-20T14:35:09.679Z,4.43
2023-05-20T14:37:37.977Z,4.65
2023-05-20T14:40:08.209Z,4.75
2023-05-20T14:42:36.957Z,4.40
2023-05-20T14:45:06.369Z,4.60
2023-05-20T14:47:36.092Z,4.35
2023-05-20T14:50:04.755Z,4.10
2023-05-20T14:52:33.652Z,4.50
2023-05-20T14:55:02.316Z,4.82
2023-05-20T14:57:32.310Z,5.00
2023-05-20T15:00:00.965Z,4.95
2023-05-20T15:02:29.736Z,4.75
2023-05-20T15:04:59.445Z,4.82
2023-05-20T15:07:28.049Z,4.70
2023-05-20T15:09:57.011Z,5.22
2023-05-20T15:12:25.729Z,4.55
2023-05-20T15:14:53.999Z,5.18
2023-05-20T15:17:23.904Z,4.85
2023-05-20T15:19:52.564Z,5.60
2023-05-20T15:22:22.477Z,5.85
2023-05-20T15:24:51.096Z,4.78
2023-05-20T15:27:19.604Z,6.07
2023-05-20T15:29:48.607Z,5.15
2023-05-20T15:32:17.556Z,5.28
2023-05-20T15:34:46.300Z,5.78
2023-05-20T15:37:14.910Z,6.38
2023-05-20T15:39:44.756Z,5.88
2023-05-20T15:42:13.974Z,5.63
2023-05-20T15:44:42.256Z,6.10
2023-05-20T15:47:11.442Z,6.05
2023-05-20T15:49:40.036Z,6.00
2023-05-20T15:52:08.637Z,5.68
2023-05-20T15:54:37.214Z,5.50
2023-05-20T15:57:07.096Z,5.30
2023-05-20T15:59:35.742Z,7.00
2023-05-20T16:02:04.413Z,6.03
2023-05-20T16:04:33.630Z,5.85
2023-05-20T16:07:02.432Z,6.38
2023-05-20T16:09:31.154Z,6.53
2023-05-20T16:11:59.581Z,6.25
2023-05-20T16:14:29.202Z,6.60
2023-05-20T16:16:57.860Z,6.95
2023-05-20T16:19:28.644Z,6.15
2023-05-20T16:21:57.456Z,6.75
2023-05-20T16:24:26.083Z,7.50
2023-05-20T16:26:55.069Z,6.75
2023-05-20T16:29:24.200Z,7.05
2023-05-20T16:31:53.988Z,6.45
2023-05-20T16:34:22.758Z,7.00
2023-05-20T16:36:51.247Z,6.63
2023-05-20T16:39:19.775Z,7.03
2023-05-20T16:41:48.304Z,6.78
2023-05-20T16:44:16.916Z,6.55
2023-05-20T16:46:45.527Z,6.40
2023-05-20T16:49:15.134Z,6.00
2023-05-20T16:51:43.476Z,6.85
2023-05-20T16:54:12.025Z,6.40
2023-05-20T16:56:40.549Z,6.30
2023-05-20T16:59:09.097Z,6.32
2023-05-20T17:01:37.590Z,6.47
2023-05-20T17:04:06.672Z,6.32
2023-05-20T17:06:36.391Z,6.97
2023-05-20T17:09:05.059Z,7.07
2023-05-20T17:11:33.693Z,7.57
2023-05-20T17:14:04.253Z,6.45
2023-05-20T17:16:32.872Z,7.25
2023-05-20T17:19:01.637Z,6.10
2023-05-20T17:21:30.023Z,6.65
2023-05-20T17:23:59.610Z,6.55
2023-05-20T17:26:28.207Z,6.75
2023-05-20T17:28:56.754Z,7.03
2023-05-20T17:31:25.050Z,7.55
2023-05-20T17:33:53.467Z,7.60
2023-05-20T17:36:22.701Z,7.38
2023-05-20T17:38:51.498Z,7.30
2023-05-20T17:41:21.850Z,6.78
2023-05-20T17:43:50.853Z,7.65
2023-05-20T17:46:22.091Z,6.93
2023-05-20T17:48:53.086Z,6.93
2023-05-20T17:51:21.696Z,6.80
2023-05-20T17:53:50.016Z,6.80
2023-05-20T17:56:20.006Z,7.18
2023-05-20T17:58:48.536Z,7.05
2023-05-20T18:01:17.414Z,7.13
2023-05-20T18:03:46.325Z,7.63
2023-05-20T18:06:15.088Z,6.30
2023-05-20T18:08:43.649Z,7.50
2023-05-20T18:11:12.273Z,8.00
2023-05-20T18:13:42.210Z,7.43
2023-05-20T18:16:10.878Z,6.65
2023-05-20T18:18:39.489Z,6.72
2023-05-20T18:21:08.852Z,7.20
2023-05-20T18:23:37.471Z,6.15
2023-05-20T18:26:07.079Z,7.30
2023-05-20T18:28:35.880Z,8.70
2023-05-20T18:31:05.730Z,7.78
2023-05-20T18:33:34.743Z,7.72
2023-05-20T18:36:03.779Z,8.25
2023-05-20T18:38:32.038Z,11.75
2023-05-20T18:41:00.923Z,7.03
2023-05-20T18:43:29.653Z,8.13
2023-05-20T18:45:58.297Z,7.50
2023-05-20T18:48:28.006Z,7.55
2023-05-20T18:50:56.728Z,7.22
2023-05-20T18:53:25.362Z,6.85
2023-05-20T18:55:53.936Z,7.15
2023-05-20T18:58:22.497Z,8.65
2023-05-20T19:00:51.125Z,7.80
2023-05-20T19:03:19.746Z,8.38
2023-05-20T19:05:49.465Z,7.78
2023-05-20T19:08:18.139Z,8.50
2023-05-20T19:10:46.684Z,8.52
2023-05-20T19:13:14.996Z,7.43
2023-05-20T19:15:43.669Z,7.97
2023-05-20T19:18:13.473Z,8.48
2023-05-20T19:20:41.990Z,8.38
2023-05-20T19:23:11.736Z,8.05
2023-05-20T19:25:40.320Z,8.45
2023-05-20T19:28:08.650Z,8.27
2023-05-20T19:30:39.819Z,8.15
2023-05-20T19:33:08.403Z,9.60
2023-05-20T19:35:36.898Z,9.70
2023-05-20T19:38:06.882Z,10.27
2023-05-20T19:40:36.675Z,8.98
2023-05-20T19:43:05.216Z,9.38
2023-05-20T19:45:35.478Z,11.60
2023-05-20T19:48:05.004Z,10.65
2023-05-20T19:50:33.721Z,9.82
2023-05-20T19:53:06.250Z,8.52
2023-05-20T19:55:37.365Z,9.02
2023-05-20T19:58:05.989Z,9.48
2023-05-20T20:00:34.471Z,10.40
2023-05-20T20:03:04.059Z,9.70
2023-05-20T20:05:32.820Z,9.73
2023-05-20T20:08:01.519Z,9.63
2023-05-20T20:10:31.458Z,10.48
2023-05-20T20:13:01.062Z,9.23
2023-05-20T20:15:30.874Z,9.80
2023-05-20T20:17:59.348Z,10.40
2023-05-20T20:20:27.930Z,9.50
2023-05-20T20:22:57.551Z,10.52
2023-05-20T20:25:26.835Z,10.18
2023-05-20T20:27:55.103Z,10.75
2023-05-20T20:30:24.832Z,10.57
2023-05-20T20:32:53.607Z,10.43
2023-05-20T20:35:23.336Z,11.50
2023-05-20T20:37:54.318Z,11.90
2023-05-20T20:40:23.519Z,10.10
2023-05-20T20:42:54.573Z,10.88
2023-05-20T20:45:24.572Z,11.00
2023-05-20T20:47:54.737Z,11.43
2023-05-20T20:50:24.647Z,11.35
2023-05-20T20:52:52.951Z,11.30
2023-05-20T20:55:23.714Z,10.80
2023-05-20T20:57:52.077Z,13.25
2023-05-20T21:00:23.290Z,11.13
2023-05-20T21:02:53.009Z,11.50
2023-05-20T21:05:21.708Z,12.02
2023-05-20T21:07:52.586Z,11.73
2023-05-20T21:10:21.261Z,12.20
2023-05-20T21:12:50.758Z,12.00
2023-05-20T21:15:19.724Z,11.73
2023-05-20T21:17:48.326Z,11.90
2023-05-20T21:20:21.322Z,11.35
2023-05-20T21:22:50.231Z,11.40
2023-05-20T21:25:18.997Z,11.55
2023-05-20T21:27:47.405Z,12.18
2023-05-20T21:30:17.566Z,12.85
2023-05-20T21:32:46.205Z,11.88
2023-05-20T21:35:14.842Z,12.95
2023-05-20T21:37:44.534Z,11.07
2023-05-20T21:40:14.254Z,13.00
2023-05-20T21:42:42.826Z,12.23
2023-05-20T21:45:12.048Z,11.68
2023-05-20T21:47:40.310Z,12.10
2023-05-20T21:50:09.987Z,12.93
2023-05-20T21:52:39.796Z,11.55
2023-05-20T21:55:11.157Z,12.40
2023-05-20T21:57:39.873Z,13.20
2023-05-20T22:00:14.199Z,11.35
2023-05-20T22:02:42.932Z,11.85
2023-05-20T22:05:12.827Z,12.52
2023-05-20T22:07:43.209Z,11.80
2023-05-20T22:10:13.693Z,13.02
2023-05-20T22:12:43.181Z,12.70
2023-05-20T22:15:12.552Z,11.52
2023-05-20T22:17:41.736Z,12.35
2023-05-20T22:20:12.255Z,11.95
2023-05-20T22:22:40.886Z,11.57
2023-05-20T22:25:10.828Z,12.50
2023-05-20T22:27:43.910Z,11.75
2023-05-20T22:30:13.278Z,11.85
2023-05-20T22:32:42.080Z,12.63
2023-05-20T22:35:13.340Z,12.07
2023-05-20T22:37:41.970Z,12.80
2023-05-20T22:40:11.669Z,12.63
2023-05-20T22:42:41.381Z,11.65
2023-05-20T22:45:11.336Z,12.35
2023-05-20T22:47:39.979Z,12.27
2023-05-20T22:50:09.836Z,12.60
2023-05-20T22:52:38.336Z,12.57
2023-05-20T22:55:08.120Z,12.95
2023-05-20T22:57:36.949Z,12.88
2023-05-20T23:00:09.804Z,13.18
2023-05-20T23:02:41.506Z,13.07
2023-05-20T23:05:11.180Z,11.95
2023-05-20T23:07:39.802Z,12.93
2023-05-20T23:10:09.190Z,12.50
2023-05-20T23:12:37.732Z,11.52
2023-05-20T23:15:09.488Z,12.82
2023-05-20T23:17:39.354Z,12.68
2023-05-20T23:20:10.845Z,13.70
2023-05-20T23:22:39.603Z,12.35
2023-05-20T23:25:09.014Z,13.65
2023-05-20T23:27:37.653Z,12.52
2023-05-20T23:30:09.531Z,13.45
2023-05-20T23:32:38.291Z,12.52
2023-05-20T23:35:08.034Z,12.60
2023-05-20T23:37:36.931Z,13.05
2023-05-20T23:40:06.620Z,13.07
2023-05-20T23:42:35.165Z,12.35
2023-05-20T23:45:07.482Z,11.73
2023-05-20T23:47:36.443Z,11.95
2023-05-20T23:50:05.279Z,12.73
2023-05-20T23:52:33.965Z,12.63
2023-05-20T23:55:02.218Z,12.50
2023-05-20T23:57:30.881Z,12.98
2023-05-20T23:59:59.456Z,12.52
